Time;durP1;ratioP1;P1;durP2;ratioP2;P2;SDS_P1;SDS_P2;PMS_P1;PMS_P2;Temp;Humidity;BMP_temperature;BMP_pressure;BME280_temperature;BME280_humidity;BME280_pressure;Samples;Min_cycle;Max_cycle;Signal;HPM_P1;HPM_P2
2022/12/07 00:00:26;;;;;;;7.53;4.95;;;;;;;6.51;100.00;98374.03;5051209;28;20779;-62
2022/12/07 00:02:51;;;;;;;6.95;5.50;;;;;;;6.65;100.00;98384.44;5051645;28;20232;-62
2022/12/07 00:05:17;;;;;;;8.70;5.38;;;;;;;6.61;100.00;98370.94;5051485;28;20264;-62
2022/12/07 00:07:42;;;;;;;8.52;5.15;;;;;;;6.12;100.00;98288.81;5050995;28;20730;-62
2022/12/07 00:10:07;;;;;;;6.40;5.07;;;;;;;6.34;100.00;98326.13;5051003;28;20181;-58
2022/12/07 00:12:33;;;;;;;8.18;5.35;;;;;;;6.51;100.00;98354.31;5083099;28;20196;-59
2022/12/07 00:14:58;;;;;;;7.47;5.20;;;;;;;6.43;100.00;98392.47;5092700;28;20720;-60
2022/12/07 00:17:24;;;;;;;7.35;5.18;;;;;;;6.48;100.00;98382.75;5093461;28;20333;-63
2022/12/07 00:19:49;;;;;;;6.68;5.22;;;;;;;6.30;100.00;98363.16;5093422;28;20234;-62
2022/12/07 00:22:17;;;;;;;8.73;5.35;;;;;;;6.26;100.00;98377.09;5093372;28;20196;-61
2022/12/07 00:24:43;;;;;;;8.35;4.47;;;;;;;6.20;100.00;98369.69;5093808;28;20188;-60
2022/12/07 00:27:08;;;;;;;11.30;5.53;;;;;;;5.91;100.00;98333.56;5093304;28;20176;-60
2022/12/07 00:29:33;;;;;;;6.55;4.88;;;;;;;5.80;100.00;98328.16;5093213;28;20176;-60
2022/12/07 00:31:59;;;;;;;11.27;5.47;;;;;;;5.64;100.00;98292.13;5093177;28;20200;-60
2022/12/07 00:34:24;;;;;;;8.43;5.78;;;;;;;5.97;100.00;98357.19;5093192;28;20238;-60
2022/12/07 00:36:50;;;;;;;8.98;5.78;;;;;;;5.79;100.00;98314.47;5093343;28;20631;-60
2022/12/07 00:39:16;;;;;;;6.90;4.72;;;;;;;6.11;100.00;98392.47;5093659;28;20188;-60
2022/12/07 00:41:42;;;;;;;9.40;5.45;;;;;;;6.09;100.00;98364.28;5093033;28;20180;-60
2022/12/07 00:44:07;;;;;;;6.80;4.75;;;;;;;5.60;100.00;98282.09;5092236;28;20199;-60
2022/12/07 00:46:33;;;;;;;9.00;5.47;;;;;;;6.26;100.00;98381.38;5092597;28;20602;-61
2022/12/07 00:48:58;;;;;;;8.07;5.03;;;;;;;6.18;100.00;98374.06;5092526;28;20184;-61
2022/12/07 00:51:25;;;;;;;8.10;5.65;;;;;;;5.97;100.00;98331.53;5092691;28;20187;-61
2022/12/07 00:53:50;;;;;;;8.65;5.25;;;;;;;6.11;100.00;98352.19;5092350;28;20558;-60
2022/12/07 00:56:23;;;;;;;7.72;5.40;;;;;;;6.44;100.00;98388.97;5092163;28;20171;-61
2022/12/07 00:59:04;;;;;;;9.50;5.20;;;;;;;6.33;100.00;98386.13;5092347;28;20184;-61
2022/12/07 01:01:32;;;;;;;9.07;5.80;;;;;;;6.23;100.00;98369.53;5092498;28;20629;-61
2022/12/07 01:04:00;;;;;;;9.52;4.85;;;;;;;5.61;100.00;98282.03;5092716;28;20322;-61
2022/12/07 01:06:26;;;;;;;9.73;6.05;;;;;;;5.87;100.00;98303.81;5092070;28;20226;-61
2022/12/07 01:08:52;;;;;;;12.80;6.65;;;;;;;6.29;100.00;98374.34;5090472;28;20224;-61
2022/12/07 01:11:20;;;;;;;6.60;4.68;;;;;;;6.38;100.00;98378.19;5090383;28;20670;-61
2022/12/07 01:13:46;;;;;;;8.05;5.60;;;;;;;6.18;100.00;98335.53;5090356;28;20189;-61
2022/12/07 01:16:14;;;;;;;5.63;5.03;;;;;;;6.15;100.00;98325.44;5090282;28;20245;-61
2022/12/07 01:18:40;;;;;;;6.05;5.22;;;;;;;6.41;100.00;98378.84;5090502;28;20188;-60
2022/12/07 01:21:18;;;;;;;7.85;5.03;;;;;;;6.22;100.00;98338.78;5090455;28;20579;-60
2022/12/07 01:23:43;;;;;;;10.25;5.00;;;;;;;6.17;100.00;98326.19;5090467;28;20291;-60
2022/12/07 01:26:15;;;;;;;8.07;5.50;;;;;;;5.97;100.00;98292.16;5090150;28;20263;-60
2022/12/07 01:28:41;;;;;;;7.07;5.25;;;;;;;5.86;100.00;98279.91;5090868;28;20195;-61
2022/12/07 01:31:14;;;;;;;8.35;4.68;;;;;;;6.18;100.00;98365.56;5090116;28;20668;-61
2022/12/07 01:33:41;;;;;;;6.50;4.65;;;;;;;5.48;100.00;98263.00;5090620;28;20192;-60
2022/12/07 01:36:09;;;;;;;9.75;5.07;;;;;;;6.11;100.00;98367.59;5090070;28;20598;-61
2022/12/07 01:38:34;;;;;;;7.07;4.50;;;;;;;5.97;100.00;98352.06;5090021;28;20569;-60
2022/12/07 01:41:01;;;;;;;9.88;4.82;;;;;;;5.67;100.00;98322.78;5090258;28;20195;-61
2022/12/07 01:43:29;;;;;;;8.85;4.50;;;;;;;5.49;100.00;98284.38;5090360;28;20208;-61
2022/12/07 01:45:55;;;;;;;6.70;4.70;;;;;;;5.85;100.00;98344.16;5091264;28;20186;-61
2022/12/07 01:48:41;;;;;;;7.47;4.95;;;;;;;5.86;100.00;98332.97;5092317;28;20176;-61
2022/12/07 01:51:12;;;;;;;9.15;4.78;;;;;;;5.81;100.00;98338.34;5091849;28;20185;-62
2022/12/07 01:53:43;;;;;;;7.90;4.40;;;;;;;5.80;100.00;98336.69;5092556;28;20194;-61
2022/12/07 01:56:13;;;;;;;6.63;4.18;;;;;;;5.54;100.00;98283.22;5092582;28;20217;-61
2022/12/07 01:58:39;;;;;;;7.47;4.32;;;;;;;5.89;100.00;98318.22;5092782;28;20200;-61
2022/12/07 02:01:04;;;;;;;7.47;4.50;;;;;;;5.33;100.00;98224.47;5091890;28;20668;-61
2022/12/07 02:03:36;;;;;;;5.85;4.18;;;;;;;6.01;100.00;98312.47;5092077;28;20200;-61
2022/12/07 02:06:02;;;;;;;5.65;4.25;;;;;;;5.70;100.00;98248.19;5092182;28;20169;-61
2022/12/07 02:08:31;;;;;;;6.80;4.65;;;;;;;5.72;100.00;98263.50;5092616;28;20618;-61
2022/12/07 02:10:57;;;;;;;6.25;4.82;;;;;;;5.73;100.00;98266.00;5092063;28;20184;-61
2022/12/07 02:13:26;;;;;;;5.22;3.90;;;;;;;5.88;100.00;98316.56;5092353;28;20180;-61
2022/12/07 02:16:06;;;;;;;8.90;4.55;;;;;;;5.66;100.00;98321.09;5092299;28;20230;-61
2022/12/07 02:19:29;;;;;;;6.00;3.80;;;;;;;5.51;100.00;98316.75;5096375;28;20180;-61
2022/12/07 02:22:18;;;;;;;6.80;4.40;;;;;;;5.11;100.00;98277.75;5053182;28;20181;-61
2022/12/07 02:25:01;;;;;;;8.13;4.63;;;;;;;5.29;100.00;98313.59;5053450;28;20166;-61
2022/12/07 02:27:41;;;;;;;5.25;3.78;;;;;;;5.14;100.00;98306.63;5053223;28;20189;-61
2022/12/07 02:30:13;;;;;;;6.00;3.97;;;;;;;4.82;100.00;98234.75;5053646;28;20174;-61
2022/12/07 02:32:50;;;;;;;8.80;4.90;;;;;;;5.38;100.00;98314.88;5052883;28;20679;-61
2022/12/07 02:35:26;;;;;;;8.85;4.50;;;;;;;5.18;100.00;98263.75;5053736;28;20228;-61
2022/12/07 02:37:59;;;;;;;6.00;3.90;;;;;;;5.48;100.00;98316.91;5053710;28;20185;-61
2022/12/07 02:40:29;;;;;;;5.40;3.90;;;;;;;5.44;100.00;98294.88;5053017;28;20268;-61
2022/12/07 02:43:05;;;;;;;4.00;3.58;;;;;;;5.29;100.00;98261.44;5053064;28;20692;-61
2022/12/07 02:45:32;;;;;;;6.25;4.20;;;;;;;5.55;100.00;98297.72;5053574;28;20614;-61
2022/12/07 02:48:00;;;;;;;7.57;4.68;;;;;;;5.37;100.00;98254.22;5052808;28;20244;-61
2022/12/07 02:50:27;;;;;;;5.63;4.20;;;;;;;5.70;100.00;98299.53;5052603;28;20278;-61
2022/12/07 02:52:53;;;;;;;6.82;4.05;;;;;;;5.32;100.00;98233.09;5077796;28;20192;-61
2022/12/07 02:55:23;;;;;;;8.80;4.10;;;;;;;5.36;100.00;98243.09;5095157;28;20237;-61
2022/12/07 02:57:57;;;;;;;10.73;5.43;;;;;;;5.34;100.00;98237.25;5095724;28;20197;-61
2022/12/07 03:00:23;;;;;;;9.48;4.57;;;;;;;5.65;100.00;98282.72;5095372;28;20175;-61
2022/12/07 03:03:03;;;;;;;8.07;4.45;;;;;;;5.53;100.00;98266.19;5094954;28;20287;-61
2022/12/07 03:05:35;;;;;;;7.75;4.60;;;;;;;5.72;100.00;98292.56;5095049;28;20173;-60
2022/12/07 03:08:21;;;;;;;6.50;3.92;;;;;;;5.75;100.00;98279.59;5095178;28;20248;-61
2022/12/07 03:11:24;;;;;;;10.23;5.07;;;;;;;5.67;100.00;98284.28;5095028;28;20256;-61
2022/12/07 03:14:08;;;;;;;8.48;4.03;;;;;;;5.65;100.00;98280.94;5094750;28;20176;-61
2022/12/07 03:16:40;;;;;;;4.07;3.63;;;;;;;5.03;100.00;98173.03;5095366;28;20214;-61
2022/12/07 03:19:11;;;;;;;6.45;3.97;;;;;;;5.45;100.00;98250.34;5095253;28;20161;-61
2022/12/07 03:21:41;;;;;;;6.63;4.00;;;;;;;5.59;100.00;98273.56;5094992;28;20247;-61
2022/12/07 03:24:19;;;;;;;7.03;4.38;;;;;;;5.22;100.00;98206.25;5094504;28;20196;-61
2022/12/07 03:26:50;;;;;;;4.88;4.32;;;;;;;5.33;100.00;98216.78;5094573;28;20541;-61
2022/12/07 03:29:37;;;;;;;9.38;4.53;;;;;;;5.13;100.00;98189.56;5093974;28;20163;-61
2022/12/07 03:32:25;;;;;;;7.70;4.60;;;;;;;5.71;100.00;98275.50;5094766;28;20248;-61
2022/12/07 03:35:06;;;;;;;7.18;4.10;;;;;;;5.62;100.00;98277.72;5094604;28;20673;-61
2022/12/07 03:37:52;;;;;;;5.05;3.70;;;;;;;5.06;100.00;98195.94;5094639;28;20165;-61
2022/12/07 03:40:49;;;;;;;7.03;3.45;;;;;;;5.71;100.00;98300.38;5094881;28;20171;-61
2022/12/07 03:43:17;;;;;;;9.23;4.22;;;;;;;5.65;100.00;98304.06;5071683;28;20220;-61
2022/12/07 03:46:13;;;;;;;8.05;4.07;;;;;;;5.36;100.00;98255.94;5071542;28;20228;-61
2022/12/07 03:48:49;;;;;;;6.95;4.15;;;;;;;5.32;100.00;98289.53;5072098;28;20748;-62
2022/12/07 03:51:26;;;;;;;6.22;4.95;;;;;;;5.23;100.00;98295.94;5071801;28;20164;-61
2022/12/07 03:54:00;;;;;;;7.15;4.72;;;;;;;5.25;100.00;98294.13;5071897;28;20291;-61
2022/12/07 03:56:28;;;;;;;7.93;5.13;;;;;;;4.71;100.00;98204.53;5071575;28;20383;-61
2022/12/07 03:58:54;;;;;;;9.48;5.18;;;;;;;5.06;100.00;98236.94;5071523;28;20189;-61
2022/12/07 04:01:20;;;;;;;8.18;4.25;;;;;;;5.43;100.00;98293.19;5071528;28;20223;-61
2022/12/07 04:03:45;;;;;;;6.65;4.57;;;;;;;4.80;100.00;98193.84;5071055;28;20215;-61
2022/12/07 04:06:11;;;;;;;6.75;5.18;;;;;;;4.81;100.00;98189.53;5071575;28;20181;-61
2022/12/07 04:08:36;;;;;;;8.23;4.63;;;;;;;5.33;100.00;98281.75;5071104;28;20182;-62
2022/12/07 04:11:01;;;;;;;7.28;4.45;;;;;;;5.42;100.00;98283.84;5070943;28;20815;-61
2022/12/07 04:13:27;;;;;;;3.80;3.50;;;;;;;5.45;100.00;98286.28;5071232;28;20189;-61
2022/12/07 04:15:52;;;;;;;5.70;3.92;;;;;;;5.62;100.00;98278.56;5070982;28;20229;-61
2022/12/07 04:18:18;;;;;;;5.22;4.13;;;;;;;5.60;100.00;98274.41;5036815;28;20292;-61
2022/12/07 04:20:43;;;;;;;5.57;4.13;;;;;;;5.45;100.00;98229.00;5051284;28;20246;-62
2022/12/07 04:23:09;;;;;;;4.53;3.83;;;;;;;5.67;100.00;98271.47;5050992;28;20217;-61
2022/12/07 04:25:34;;;;;;;6.25;4.07;;;;;;;5.69;100.00;98269.63;5050850;28;20181;-61
2022/12/07 04:27:59;;;;;;;7.07;3.58;;;;;;;5.75;100.00;98268.47;5050912;28;20190;-61
2022/12/07 04:30:25;;;;;;;6.25;3.42;;;;;;;5.30;100.00;98225.47;5050781;28;20178;-61
2022/12/07 04:32:50;;;;;;;4.53;3.60;;;;;;;5.04;100.00;98178.97;5050731;28;20192;-62
2022/12/07 04:35:16;;;;;;;6.28;3.50;;;;;;;4.83;100.00;98178.28;5050669;28;20185;-61
2022/12/07 04:37:41;;;;;;;4.15;3.75;;;;;;;5.16;100.00;98250.97;5050892;28;20232;-61
2022/12/07 04:40:11;;;;;;;6.80;3.58;;;;;;;4.72;100.00;98174.63;5050033;28;20178;-61
2022/12/07 04:42:37;;;;;;;4.90;3.97;;;;;;;5.45;100.00;98276.00;5050507;28;20228;-61
2022/12/07 04:45:02;;;;;;;4.85;3.72;;;;;;;5.13;100.00;98206.72;5050571;28;20655;-61
2022/12/07 04:47:28;;;;;;;4.20;3.80;;;;;;;4.98;100.00;98182.66;5050497;28;20189;-62
2022/12/07 04:49:53;;;;;;;7.43;3.95;;;;;;;4.87;100.00;98156.75;5082511;28;20192;-61
2022/12/07 04:52:18;;;;;;;3.97;3.35;;;;;;;5.09;100.00;98206.03;5092942;28;20191;-61
2022/12/07 04:54:44;;;;;;;5.80;3.30;;;;;;;4.95;100.00;98182.81;5092917;28;20255;-61
2022/12/07 04:57:09;;;;;;;5.47;3.28;;;;;;;5.43;100.00;98241.88;5092624;28;20187;-61
2022/12/07 04:59:35;;;;;;;5.50;3.90;;;;;;;4.83;100.00;98146.72;5093638;28;20221;-62
2022/12/07 05:02:00;;;;;;;5.38;3.28;;;;;;;5.30;100.00;98251.13;5110863;28;20553;-62
2022/12/07 05:04:25;;;;;;;4.55;3.63;;;;;;;5.25;100.00;98224.88;5069460;28;20212;-61
2022/12/07 05:06:51;;;;;;;4.55;3.72;;;;;;;5.14;100.00;98172.47;5070411;28;20287;-63
2022/12/07 05:09:16;;;;;;;5.28;3.38;;;;;;;5.51;100.00;98254.34;5070297;28;20247;-63
2022/12/07 05:11:43;;;;;;;3.80;2.88;;;;;;;4.93;100.00;98159.00;5070067;28;20207;-62
2022/12/07 05:14:17;;;;;;;4.00;2.88;;;;;;;5.33;100.00;98250.97;5070171;28;20266;-62
2022/12/07 05:16:44;;;;;;;6.57;2.75;;;;;;;4.72;100.00;98167.72;5070555;28;20193;-62
2022/12/07 05:19:11;;;;;;;4.80;2.90;;;;;;;5.37;100.00;98267.84;5070926;28;20310;-62
2022/12/07 05:21:37;;;;;;;7.82;3.50;;;;;;;5.07;100.00;98228.34;5070044;28;20247;-62
2022/12/07 05:24:03;;;;;;;4.55;2.80;;;;;;;5.17;100.00;98260.34;5069931;28;20707;-62
2022/12/07 05:26:29;;;;;;;4.45;3.00;;;;;;;4.92;100.00;98225.72;5069831;28;20272;-62
2022/12/07 05:28:55;;;;;;;5.50;3.72;;;;;;;4.75;100.00;98221.41;5069913;28;20718;-62
2022/12/07 05:31:22;;;;;;;5.85;3.15;;;;;;;4.51;100.00;98179.03;5070187;28;20709;-62
2022/12/07 05:33:48;;;;;;;5.65;3.15;;;;;;;4.49;100.00;98173.16;5069994;28;20185;-62
2022/12/07 05:36:13;;;;;;;4.22;2.97;;;;;;;5.04;100.00;98271.25;5088943;28;20192;-62
2022/12/07 05:38:39;;;;;;;3.60;3.30;;;;;;;4.81;100.00;98236.50;5092282;28;20646;-62
2022/12/07 05:41:07;;;;;;;4.03;3.63;;;;;;;4.52;100.00;98178.13;5092332;28;20259;-62
2022/12/07 05:43:34;;;;;;;8.07;3.30;;;;;;;5.03;100.00;98256.78;5092236;28;20199;-62
2022/12/07 05:46:00;;;;;;;5.65;3.45;;;;;;;5.21;100.00;98278.97;5092602;28;20305;-63
2022/12/07 05:48:25;;;;;;;6.60;3.88;;;;;;;4.74;100.00;98206.09;5092246;28;20645;-62
2022/12/07 05:50:52;;;;;;;6.45;3.42;;;;;;;5.15;100.00;98246.75;5092558;28;20172;-63
2022/12/07 05:53:17;;;;;;;4.43;3.45;;;;;;;4.85;100.00;98204.66;5096806;28;20708;-63
2022/12/07 05:55:43;;;;;;;5.43;3.55;;;;;;;5.21;100.00;98264.41;5114334;28;20288;-62
2022/12/07 06:00:54;;;;;;;4.13;3.60;;;;;;;5.24;100.00;98266.81;5114743;28;20194;-62
2022/12/07 06:03:20;;;;;;;10.43;6.72;;;;;;;4.99;100.00;98193.75;5113997;28;20663;-62
2022/12/07 06:05:45;;;;;;;6.85;3.65;;;;;;;4.85;100.00;98180.78;5114055;28;20262;-62
2022/12/07 06:08:11;;;;;;;3.83;3.25;;;;;;;5.27;100.00;98241.03;5114225;28;20188;-62
2022/12/07 06:10:36;;;;;;;3.65;3.15;;;;;;;5.38;100.00;98261.84;5114077;28;20195;-62
2022/12/07 06:13:01;;;;;;;4.28;3.17;;;;;;;5.28;100.00;98237.56;5093616;28;20184;-63
2022/12/07 06:15:27;;;;;;;5.28;3.45;;;;;;;5.33;100.00;98247.56;5093717;28;20275;-63
2022/12/07 06:17:52;;;;;;;3.85;3.55;;;;;;;5.46;100.00;98269.13;5093612;28;20767;-63
2022/12/07 06:20:17;;;;;;;6.88;4.03;;;;;;;5.29;100.00;98244.34;5093527;28;20204;-63
2022/12/07 06:22:43;;;;;;;4.35;3.10;;;;;;;5.31;100.00;98268.16;5093408;28;20327;-63
2022/12/07 06:25:09;;;;;;;7.38;3.30;;;;;;;5.35;100.00;98285.06;5093225;28;20181;-62
2022/12/07 06:27:35;;;;;;;4.57;3.88;;;;;;;5.44;100.00;98297.44;5093699;28;20184;-63
2022/12/07 06:30:06;;;;;;;4.65;3.83;;;;;;;5.15;100.00;98251.91;5093480;28;20180;-63
2022/12/07 06:32:31;;;;;;;4.70;3.92;;;;;;;5.50;100.00;98298.88;5088847;28;20193;-63
2022/12/07 06:34:57;;;;;;;10.93;5.18;;;;;;;5.54;100.00;98285.78;5073212;28;20188;-63
2022/12/07 06:37:22;;;;;;;5.95;4.35;;;;;;;5.45;100.00;98285.44;5072867;28;20169;-62
2022/12/07 06:39:48;;;;;;;4.88;4.40;;;;;;;5.30;100.00;98245.97;5072754;28;20618;-63
2022/12/07 06:42:13;;;;;;;9.10;3.58;;;;;;;5.23;100.00;98195.06;5072696;28;20246;-63
2022/12/07 06:44:38;;;;;;;6.30;4.40;;;;;;;5.90;100.00;98301.91;5090231;28;20287;-62
2022/12/07 06:47:04;;;;;;;8.25;4.35;;;;;;;5.24;100.00;98200.13;5095293;28;20165;-63
2022/12/07 06:49:29;;;;;;;4.68;3.45;;;;;;;5.24;100.00;98209.56;5095481;28;20168;-63
2022/12/07 06:51:55;;;;;;;5.55;4.38;;;;;;;5.26;100.00;98200.06;5095471;28;20661;-62
2022/12/07 06:54:20;;;;;;;6.85;5.40;;;;;;;5.80;100.00;98276.81;5095137;28;20173;-62
2022/12/07 06:56:46;;;;;;;8.20;4.38;;;;;;;6.05;100.00;98302.84;5095938;28;20169;-62
2022/12/07 06:59:11;;;;;;;7.65;4.30;;;;;;;6.08;100.00;98293.28;5095038;28;20179;-63
2022/12/07 07:01:36;;;;;;;9.10;4.93;;;;;;;5.84;100.00;98250.88;5094967;28;20255;-63
2022/12/07 07:04:02;;;;;;;7.40;4.95;;;;;;;6.20;100.00;98302.91;5093925;28;20200;-62
2022/12/07 07:06:28;;;;;;;6.38;4.15;;;;;;;6.28;100.00;98298.19;5095151;28;20176;-63
2022/12/07 07:08:53;;;;;;;5.22;4.10;;;;;;;6.35;100.00;98304.66;5095151;28;20180;-63
2022/12/07 07:11:19;;;;;;;7.45;4.55;;;;;;;6.20;100.00;98256.69;5094953;28;20661;-62
2022/12/07 07:13:45;;;;;;;9.45;6.10;;;;;;;6.28;100.00;98259.66;5094495;28;20635;-63
2022/12/07 07:16:10;;;;;;;9.05;4.88;;;;;;;6.53;100.00;98288.25;5094927;28;20180;-63
2022/12/07 07:18:36;;;;;;;7.68;4.85;;;;;;;6.49;100.00;98253.34;5094363;28;20661;-62
2022/12/07 07:21:01;;;;;;;8.55;5.05;;;;;;;6.43;100.00;98232.28;5094880;28;20263;-63
2022/12/07 07:23:27;;;;;;;8.23;5.00;;;;;;;6.68;100.00;98254.00;5094796;28;20204;-63
2022/12/07 07:25:52;;;;;;;7.85;6.03;;;;;;;6.54;100.00;98210.22;5094270;28;20259;-63
2022/12/07 07:28:18;;;;;;;13.35;5.70;;;;;;;7.17;100.00;98308.66;5094781;28;20195;-63
2022/12/07 07:30:44;;;;;;;8.00;5.68;;;;;;;7.25;100.00;98303.91;5094433;28;20192;-62
2022/12/07 07:33:12;;;;;;;8.52;5.47;;;;;;;7.39;100.00;98312.50;5094397;28;20180;-63
2022/12/07 07:35:39;;;;;;;11.35;5.55;;;;;;;6.90;100.00;98217.63;5095097;28;20204;-62
2022/12/07 07:38:04;;;;;;;7.20;4.72;;;;;;;7.27;100.00;98258.31;5094765;28;20180;-62
2022/12/07 07:40:30;;;;;;;5.78;4.40;;;;;;;7.09;100.00;98219.06;5094257;28;20542;-62
2022/12/07 07:42:56;;;;;;;6.57;3.80;;;;;;;7.57;100.00;98279.72;5094089;28;20572;-62
2022/12/07 07:45:24;;;;;;;5.82;3.83;;;;;;;7.88;100.00;98316.47;5094614;28;20173;-62
2022/12/07 07:47:49;;;;;;;7.88;4.80;;;;;;;7.60;100.00;98252.06;5094368;28;20259;-62
2022/12/07 07:50:16;;;;;;;5.63;4.32;;;;;;;7.91;100.00;98302.53;5094226;28;20271;-63
2022/12/07 07:52:41;;;;;;;13.48;8.38;;;;;;;7.94;100.00;98287.75;5093944;28;20212;-63
2022/12/07 07:55:08;;;;;;;16.30;10.85;;;;;;;7.93;100.00;98296.38;5093963;28;20203;-63
2022/12/07 07:57:34;;;;;;;9.85;5.82;;;;;;;7.79;100.00;98268.06;5093961;28;20176;-63
2022/12/07 08:00:00;;;;;;;9.68;6.60;;;;;;;8.15;100.00;98309.63;5094371;28;20180;-63
2022/12/07 08:02:25;;;;;;;11.07;6.93;;;;;;;8.16;100.00;98308.72;5094000;28;20184;-63
2022/12/07 08:04:51;;;;;;;28.27;15.60;;;;;;;8.31;100.00;98319.88;5094065;28;20529;-63
2022/12/07 08:07:19;;;;;;;15.85;9.02;;;;;;;8.43;100.00;98311.38;5094258;28;20636;-63
2022/12/07 08:09:45;;;;;;;40.55;20.65;;;;;;;8.53;100.00;98302.19;5093634;28;20209;-62
2022/12/07 08:12:10;;;;;;;43.85;22.65;;;;;;;8.35;100.00;98252.59;5094197;28;20223;-62
2022/12/07 08:14:35;;;;;;;30.90;15.65;;;;;;;8.55;100.00;98265.06;5094309;28;20176;-62
2022/12/07 08:17:01;;;;;;;14.07;8.95;;;;;;;8.94;100.00;98309.00;5093555;28;20258;-62
2022/12/07 08:19:26;;;;;;;18.42;10.73;;;;;;;8.81;100.00;98266.84;5092844;28;20620;-62
2022/12/07 08:21:52;;;;;;;20.17;10.02;;;;;;;9.21;100.00;98304.63;5093344;28;20179;-63
2022/12/07 08:24:18;;;;;;;20.55;11.88;;;;;;;9.19;100.00;98272.94;5093207;28;20641;-61
2022/12/07 08:26:43;;;;;;;17.95;11.25;;;;;;;9.36;100.00;98284.72;5091235;28;20179;-61
2022/12/07 08:29:09;;;;;;;19.85;11.63;;;;;;;9.61;100.00;98306.25;5091985;28;20234;-62
2022/12/07 08:31:34;;;;;;;20.08;12.30;;;;;;;9.51;100.00;98263.91;5093203;28;20186;-61
2022/12/07 08:34:00;;;;;;;21.13;12.18;;;;;;;9.37;100.00;98225.25;5092814;28;20184;-61
2022/12/07 08:36:26;;;;;;;24.65;13.77;;;;;;;9.95;100.00;98303.06;5093097;28;20627;-62
2022/12/07 08:38:51;;;;;;;30.75;14.05;;;;;;;10.10;100.00;98309.84;5093097;28;20172;-62
2022/12/07 08:41:18;;;;;;;24.90;12.77;;;;;;;9.88;100.00;98269.06;5093452;28;20176;-62
2022/12/07 08:43:43;;;;;;;29.13;14.63;;;;;;;9.64;100.00;98223.41;5093029;28;20693;-62
2022/12/07 08:46:10;;;;;;;30.65;16.33;;;;;;;10.14;100.00;98303.50;5092698;28;20185;-62
2022/12/07 08:48:43;;;;;;;34.22;17.33;;;;;;;10.01;100.00;98279.38;5092949;28;20168;-62
2022/12/07 08:51:09;;;;;;;31.58;17.02;;;;;;;10.18;100.00;98323.06;5093498;28;20590;-62
2022/12/07 08:53:36;;;;;;;32.28;17.65;;;;;;;10.11;100.00;98314.06;5092636;28;20214;-62
2022/12/07 08:56:03;;;;;;;38.13;18.67;;;;;;;9.65;100.00;98250.88;5092780;28;20184;-62
2022/12/07 08:58:28;;;;;;;46.00;20.35;;;;;;;9.60;100.00;98240.03;5092677;28;20191;-63
2022/12/07 09:00:54;;;;;;;33.55;18.50;;;;;;;9.91;100.00;98292.13;5092768;28;20255;-63
2022/12/07 09:03:19;;;;;;;33.60;15.73;;;;;;;9.99;100.00;98294.19;5092687;28;20200;-63
2022/12/07 09:05:45;;;;;;;27.02;15.82;;;;;;;10.01;100.00;98298.31;5089842;28;20285;-62
2022/12/07 09:08:10;;;;;;;32.92;15.88;;;;;;;10.07;100.00;98289.34;5090512;28;20189;-63
2022/12/07 09:10:36;;;;;;;27.63;15.90;;;;;;;10.14;100.00;98285.41;5090337;28;20682;-62
2022/12/07 09:13:01;;;;;;;25.27;15.77;;;;;;;9.73;100.00;98194.34;5090310;28;20533;-63
2022/12/07 09:15:31;;;;;;;29.20;15.88;;;;;;;9.92;100.00;98218.81;5090256;28;20181;-62
2022/12/07 09:17:56;;;;;;;31.40;16.10;;;;;;;9.79;100.00;98191.34;5090275;28;20568;-62
2022/12/07 09:20:22;;;;;;;30.08;15.73;;;;;;;9.87;100.00;98199.41;5090200;28;20183;-62
2022/12/07 09:22:48;;;;;;;39.60;18.95;;;;;;;10.32;100.00;98255.69;5090100;28;20232;-62
2022/12/07 09:25:13;;;;;;;37.10;18.98;;;;;;;10.00;100.00;98187.28;5069503;28;20256;-62
2022/12/07 09:27:39;;;;;;;29.13;16.23;;;;;;;10.51;100.00;98261.25;5070066;28;20197;-62
2022/12/07 09:30:06;;;;;;;28.85;16.05;;;;;;;10.56;100.00;98259.97;5070289;28;20192;-61
2022/12/07 09:32:31;;;;;;;26.98;16.63;;;;;;;10.50;100.00;98244.88;5068958;28;20191;-62
2022/12/07 09:34:57;;;;;;;30.15;15.07;;;;;;;10.47;100.00;98236.50;5070021;28;20193;-61
2022/12/07 09:37:22;;;;;;;33.13;16.05;;;;;;;10.30;100.00;98200.66;5070320;28;20208;-62
2022/12/07 09:39:47;;;;;;;29.40;15.95;;;;;;;10.56;100.00;98236.69;5069891;28;20696;-62
2022/12/07 09:42:33;;;;;;;28.05;16.25;;;;;;;10.38;100.00;98195.78;5068094;28;20239;-61
2022/12/07 09:45:00;;;;;;;38.72;18.13;;;;;;;10.76;100.00;98237.84;5050440;28;20254;-61
2022/12/07 09:47:27;;;;;;;41.42;19.92;;;;;;;10.54;100.00;98196.34;5049559;28;20190;-60
2022/12/07 09:49:59;;;;;;;48.35;22.48;;;;;;;10.63;100.00;98206.03;5049975;28;20178;-61
2022/12/07 09:52:28;;;;;;;39.42;19.38;;;;;;;10.84;100.00;98226.00;5050545;28;20177;-61
2022/12/07 09:54:54;;;;;;;34.00;15.52;;;;;;;10.46;100.00;98183.94;5049844;28;20220;-61
2022/12/07 09:57:28;;;;;;;25.95;16.27;;;;;;;10.84;100.00;98226.00;5090694;28;20212;-61
2022/12/07 09:59:59;;;;;;;28.67;15.82;;;;;;;10.66;100.00;98187.69;5092833;28;20157;-61
2022/12/07 10:02:30;;;;;;;31.25;15.77;;;;;;;10.90;100.00;98209.19;5092139;28;20173;-61
2022/12/07 10:04:57;;;;;;;28.65;16.50;;;;;;;10.53;100.00;98143.78;5092519;28;20551;-61
2022/12/07 10:07:23;;;;;;;38.75;20.83;;;;;;;10.95;100.00;98191.56;5091785;28;20180;-61
2022/12/07 10:09:49;;;;;;;35.95;19.92;;;;;;;11.06;100.00;98204.56;5092404;28;20237;-61
2022/12/07 10:12:14;;;;;;;33.22;17.50;;;;;;;10.90;100.00;98202.28;5092625;28;20212;-61
2022/12/07 10:14:58;;;;;;;34.75;18.48;;;;;;;10.68;100.00;98157.38;5091243;28;20261;-61
2022/12/07 10:17:35;;;;;;;34.65;17.50;;;;;;;10.80;100.00;98165.03;5090546;28;20607;-61
2022/12/07 10:20:15;;;;;;;35.25;17.48;;;;;;;10.90;100.00;98157.44;5092876;28;20175;-62
2022/12/07 10:23:15;;;;;;;28.15;16.10;;;;;;;11.24;100.00;98200.59;5091882;28;20211;-61
2022/12/07 10:25:42;;;;;;;28.33;17.15;;;;;;;11.02;100.00;98152.19;5048586;28;20186;-60
2022/12/07 10:28:07;;;;;;;30.73;16.95;;;;;;;11.31;100.00;98204.38;5048945;28;20239;-61
2022/12/07 10:30:49;;;;;;;31.08;17.42;;;;;;;11.04;100.00;98144.31;5049826;28;20681;-61
2022/12/07 10:33:54;;;;;;;30.48;16.35;;;;;;;11.41;100.00;98198.41;5049338;28;20201;-62
2022/12/07 10:36:25;;;;;;;31.80;16.08;;;;;;;11.43;100.00;98200.91;4989951;28;20192;-61
2022/12/07 10:38:58;;;;;;;30.60;15.85;;;;;;;11.35;100.00;98200.63;4992607;28;20195;-61
2022/12/07 10:41:23;;;;;;;28.48;16.88;;;;;;;11.25;100.00;98195.31;4994148;28;20180;-61
2022/12/07 10:43:52;;;;;;;28.58;16.58;;;;;;;11.26;100.00;98198.75;4993588;28;20246;-61
2022/12/07 10:46:29;;;;;;;30.27;15.98;;;;;;;11.27;100.00;98187.44;4993697;28;20200;-61
2022/12/07 10:49:06;;;;;;;26.42;16.23;;;;;;;11.31;100.00;98191.44;4993993;28;20623;-61
2022/12/07 10:51:52;;;;;;;28.63;15.93;;;;;;;11.18;100.00;98141.50;4993443;28;20617;-61
2022/12/07 10:54:23;;;;;;;29.65;15.50;;;;;;;11.57;100.00;98190.31;4994151;28;20268;-61
2022/12/07 10:56:54;;;;;;;28.15;15.88;;;;;;;11.58;100.00;98198.00;4993615;28;20642;-61
2022/12/07 10:59:28;;;;;;;29.27;16.58;;;;;;;11.60;100.00;98193.50;4993368;28;20204;-61
2022/12/07 11:02:15;;;;;;;30.92;18.23;;;;;;;11.55;100.00;98187.03;5020892;28;20372;-61
2022/12/07 11:05:39;;;;;;;25.00;15.30;;;;;;;11.45;100.00;98189.44;5052874;28;20217;-61
2022/12/07 11:08:45;;;;;;;28.77;15.43;;;;;;;11.13;100.00;98147.03;5009841;28;20249;-62
2022/12/07 11:11:29;;;;;;;25.45;15.90;;;;;;;11.23;100.00;98162.69;4995445;28;20218;-61
2022/12/07 11:14:09;;;;;;;30.95;15.73;;;;;;;11.27;100.00;98185.66;5012807;28;20533;-62
2022/12/07 11:17:03;;;;;;;31.60;15.63;;;;;;;11.28;100.00;98176.13;5013037;28;20250;-61
2022/12/07 11:19:53;;;;;;;30.08;15.93;;;;;;;11.31;100.00;98175.88;5013275;28;20174;-61
2022/12/07 11:22:44;;;;;;;28.70;15.60;;;;;;;11.28;100.00;98169.19;5013225;28;20210;-61
2022/12/07 11:25:16;;;;;;;25.63;15.35;;;;;;;11.32;100.00;98164.63;5012923;28;20626;-61
2022/12/07 11:27:44;;;;;;;29.23;16.90;;;;;;;11.28;100.00;98166.59;5012348;28;20661;-61
2022/12/07 11:30:23;;;;;;;30.42;17.05;;;;;;;11.28;100.00;98158.00;5012228;28;20197;-61
2022/12/07 11:33:25;;;;;;;29.40;16.75;;;;;;;10.71;100.00;98061.41;5012769;28;20221;-62
2022/12/07 11:36:32;;;;;;;27.42;16.35;;;;;;;11.11;100.00;98142.91;4992416;28;20726;-61
2022/12/07 11:39:01;;;;;;;25.42;16.20;;;;;;;11.10;100.00;98143.84;4973199;28;20203;-61
2022/12/07 11:41:34;;;;;;;28.83;16.48;;;;;;;10.60;100.00;98061.38;4978804;28;20261;-61